Terminal Aerodrome Forecast
Issued by NWS

Home | Current Version | Previous Version | Graphics & Text | Print | Product List | Glossary On
Versions: 1 2 3 4 5 6 7 8 9 10 11 12 13 14 15 16 17 18 19 20 21
000
FTUS43 KABR 031100
TAFATY
TAF
KATY 031130Z 0312/0412 20006KT 2SM -SN BR BKN015
      TEMPO 0312/0314 1/2SM SN BLSN VV007
     FM031400 33028G38KT 1/2SM SN BLSN OVC007
     FM031800 32020G30KT 6SM BLSN OVC015
     FM040000 32017KT P6SM BKN040=

USA.gov is the U.S. government's official web portal to all federal, state and local government web resources and services.